• Join FlightAware (Why Join?)
  • Login
  • US Flag 
03:55PM EDT


 

Airport Tracker/Info


-or-


 

Live Flight TrackerFlight Track Log ✈ EJA951 ✈ 24-May-2013 ✈ KSGJ - KFPR

Flight Track Log - Related Links

Times and Time Zones

All times are in EDT time to prevent confusion due to time zone crossing. See the EJA951 flight status page for this flight to view local times or setup timezone preferences in your user account.

Time Position Orientation Groundspeed Altitude Reporting Facility
EDT Latitude Longitude Course Direction KTS MPH feet Rate Location/Type
03:48PM 30.0250 -81.3092 50° Northeast 240 276 5,900  Level Jacksonville Center
03:48PM 30.0394 -81.2922 45° Northeast 234 269 6,600 3,900 Climbing Jacksonville Center
03:50PM 30.0358 -81.1794 92° East 226 260 14,900 3,120 Climbing Jacksonville Center
03:51PM 29.9439 -81.1714 176° South 197 227 16,000 540 Climbing Jacksonville Center
03:52PM 29.8331 -81.1592 175° South 312 359 16,000  Level Jacksonville Center
03:53PM 29.7072 -81.1256 167° South 395 455 16,000  Level Jacksonville Center
03:54PM 29.5878 -81.0847 163° South 431 496 16,000  Level Jacksonville Center
03:55PM 29.4639 -81.0417 163° South 452 520 16,000  Level Jacksonville Center
03:56PM 29.3467 -81.0081 166° South 452 520 16,000  Level Jacksonville Center
03:57PM 29.2269 -80.9700 164° South 452 520 16,000  Level Jacksonville Center
03:58PM 29.1075 -80.9319 164° South 452 520 16,000  Level Jacksonville Center
03:59PM 28.9858 -80.8939 165° South 452 520 16,000 -480 Level Jacksonville Center
04:00PM 28.8767 -80.8606 165° South 446 513 15,100 -1,440 Descending Jacksonville Center
04:01PM 28.7667 -80.8167 161° South 388 447 13,100 -1,860 Descending Orlando TRACON
04:02PM 28.6667 -80.8000 172° South 383 441 11,300 -1,740 Descending Orlando TRACON
04:03PM 28.5667 -80.7667 164° South 332 382 9,500 -1,680 Descending Orlando TRACON
04:04PM 28.5000 -80.7333 156° South 310 357 8,200 -1,260 Descending Orlando TRACON
04:06PM 28.3369 -80.6942 168° South 298 343 6,000 -780 Descending Miami Center
04:07PM 28.2689 -80.6731 165° South 272 313 6,000  Level Miami Center
04:08PM 28.2044 -80.6544 166° South 272 313 6,000  Level Miami Center
04:09PM 28.1281 -80.6306 165° South 278 320 6,000  Level Miami Center
04:10PM 28.0472 -80.6044 164° South 278 320 6,000  Level Miami Center
04:11PM 27.9725 -80.5856 167° South 278 320 6,000  Level Miami Center
04:12PM 27.8978 -80.5714 170° South 278 320 6,000 -660 Level Miami Center
04:13PM 27.8356 -80.5553 167° South 267 307 4,700 -1,020 Descending Miami Center
04:14PM 27.7669 -80.5436 171° South 257 296 4,000 -420 Descending Miami Center
04:15PM 27.6986 -80.5272 168° South 240 276 3,900 -720 Descending Miami Center
04:16PM 27.6342 -80.5136 169° South 240 276 2,600 -1,200 Descending Miami Center
04:17PM 27.5697 -80.5022 171° South 240 276 1,600 -540 Descending Miami Center
04:18PM 27.5283 -80.4961 173° South 202 232 1,600  Level Miami Center
04:19PM 27.4842 -80.4994 184° South 167 192 1,600 -180 Level Miami Center
04:20PM 27.4958 -80.4506 75° East 102 117 1,300 -600 Descending Miami Center
04:21PM 27.4992 -80.4086 85° East 127 146 500 -840 Descending Miami Center